Time;durP1;ratioP1;P1;durP2;ratioP2;P2;SDS_P1;SDS_P2;PMS_P1;PMS_P2;Temp;Humidity;BMP_temperature;BMP_pressure;BME280_temperature;BME280_humidity;BME280_pressure;Samples;Min_cycle;Max_cycle;Signal;HPM_P1;HPM_P2
2022/06/14 00:02:33;;;;;;;8.90;2.40;;;;;;;11.57;66.52;102322.22;5031831;28;20732;-79
2022/06/14 00:05:01;;;;;;;8.77;2.65;;;;;;;11.50;67.00;102319.66;5036253;28;20134;-79
2022/06/14 00:07:28;;;;;;;8.73;2.10;;;;;;;11.45;67.85;102308.25;5030911;28;20070;-79
2022/06/14 00:09:55;;;;;;;9.45;2.30;;;;;;;11.39;67.85;102318.03;5042474;28;20532;-77
2022/06/14 00:12:22;;;;;;;9.77;2.42;;;;;;;11.30;68.04;102314.56;5037616;28;20045;-79
2022/06/14 00:14:49;;;;;;;7.18;2.78;;;;;;;11.22;68.04;102310.28;5034988;28;20160;-79
2022/06/14 00:17:17;;;;;;;9.68;3.35;;;;;;;11.10;68.19;102303.31;5037026;28;20060;-78
2022/06/14 00:19:44;;;;;;;9.88;3.15;;;;;;;10.99;68.73;102309.56;5038668;28;21191;-77
2022/06/14 00:22:12;;;;;;;10.98;3.03;;;;;;;10.91;68.78;102306.13;5038586;28;20083;-78
2022/06/14 00:24:41;;;;;;;8.70;3.05;;;;;;;10.81;69.09;102301.81;5031015;28;20120;-78
2022/06/14 00:27:08;;;;;;;8.77;2.90;;;;;;;10.74;69.36;102298.34;5040407;28;20073;-78
2022/06/14 00:29:35;;;;;;;9.40;2.95;;;;;;;10.70;69.40;102294.88;5042560;28;20037;-78
2022/06/14 00:32:03;;;;;;;7.57;3.00;;;;;;;10.66;69.10;102297.53;5036329;28;20424;-78
2022/06/14 00:34:32;;;;;;;6.00;2.35;;;;;;;10.61;69.70;102302.00;5029882;28;20046;-78
2022/06/14 00:36:59;;;;;;;8.13;2.80;;;;;;;10.57;70.29;102303.78;5034411;28;20161;-79
2022/06/14 00:39:26;;;;;;;5.78;2.20;;;;;;;10.54;70.69;102303.78;5035002;28;20128;-78
2022/06/14 00:41:57;;;;;;;10.13;2.90;;;;;;;10.50;70.13;102308.22;5036167;28;20061;-78
2022/06/14 00:44:29;;;;;;;6.30;2.70;;;;;;;10.47;70.50;102302.94;5040934;28;20045;-78
2022/06/14 00:47:04;;;;;;;6.57;2.90;;;;;;;10.43;70.64;102301.19;5036681;28;20494;-78
2022/06/14 00:49:45;;;;;;;9.35;3.05;;;;;;;10.41;71.24;102314.41;5036833;28;20046;-78
2022/06/14 00:52:36;;;;;;;9.40;2.72;;;;;;;10.36;71.57;102310.91;5033390;28;20042;-78
2022/06/14 00:55:22;;;;;;;8.50;2.88;;;;;;;10.31;71.33;102317.09;5043889;28;20136;-78
2022/06/14 00:58:01;;;;;;;8.10;2.80;;;;;;;10.32;71.81;102319.69;5049099;28;20125;-79
2022/06/14 01:00:40;;;;;;;12.68;2.90;;;;;;;10.32;72.17;102319.69;5043949;28;20855;-79
2022/06/14 01:03:45;;;;;;;13.10;3.47;;;;;;;10.28;71.65;102312.69;5039317;28;20057;-78
2022/06/14 01:06:36;;;;;;;9.88;3.15;;;;;;;10.29;71.40;102317.06;5034648;28;20042;-78
2022/06/14 01:09:10;;;;;;;11.75;3.35;;;;;;;10.30;71.17;102317.97;5037197;28;20476;-78
2022/06/14 01:12:04;;;;;;;10.88;3.30;;;;;;;10.29;71.58;102305.66;5040788;28;20137;-77
2022/06/14 01:14:51;;;;;;;5.80;3.00;;;;;;;10.30;71.48;102316.19;5049177;28;20152;-78
2022/06/14 01:17:20;;;;;;;9.07;3.65;;;;;;;10.29;71.97;102309.16;5036586;28;20070;-78
2022/06/14 01:19:48;;;;;;;11.50;3.67;;;;;;;10.29;72.58;102306.53;5033214;28;20050;-78
2022/06/14 01:22:18;;;;;;;11.43;3.60;;;;;;;10.27;72.23;102308.31;5034761;28;20393;-78
2022/06/14 01:24:45;;;;;;;12.32;3.30;;;;;;;10.28;72.81;102307.41;5041335;28;20044;-78
2022/06/14 01:27:17;;;;;;;5.80;2.63;;;;;;;10.29;72.87;102303.91;5040351;28;20052;-78
2022/06/14 01:29:57;;;;;;;12.60;3.03;;;;;;;10.28;73.01;102296.88;5037824;28;20037;-79
2022/06/14 01:32:30;;;;;;;8.63;3.15;;;;;;;10.26;73.25;102296.88;5038908;28;20761;-78
2022/06/14 01:35:04;;;;;;;8.55;3.00;;;;;;;10.24;72.90;102300.44;5036611;28;20489;-78
2022/06/14 01:37:31;;;;;;;;;;;;;;;10.18;72.33;102295.16;5036973;28;20124;-77
2022/06/14 01:40:01;;;;;;;12.77;3.03;;;;;;;10.18;72.48;102292.53;5048431;28;19925;-78
2022/06/14 01:42:48;;;;;;;5.65;2.78;;;;;;;10.18;72.66;102288.16;5034987;28;20504;-79
2022/06/14 01:45:59;;;;;;;9.55;2.97;;;;;;;10.17;73.61;102294.31;5037083;28;20046;-75
2022/06/14 01:48:42;;;;;;;9.77;3.00;;;;;;;10.12;73.18;102288.19;5040896;28;20069;-75
2022/06/14 01:54:55;;;;;;;7.72;2.78;;;;;;;10.04;73.05;102284.69;5039016;28;20044;-75
2022/06/14 01:57:38;;;;;;;8.45;2.90;;;;;;;9.99;72.91;102278.59;5039519;28;20570;-75
2022/06/14 02:00:14;;;;;;;8.07;3.40;;;;;;;9.92;72.91;102275.09;5036688;28;20041;-76
2022/06/14 02:06:14;;;;;;;9.95;3.78;;;;;;;9.78;74.00;102272.53;5053206;28;20078;-78
2022/06/14 02:08:52;;;;;;;;;;;;;;;9.67;73.25;102277.84;5071463;28;20064;-77
2022/06/14 02:11:32;;;;;;;7.78;3.80;;;;;;;9.60;73.62;102284.00;5077587;28;19976;-77
2022/06/14 02:14:47;;;;;;;10.90;3.75;;;;;;;9.48;73.40;102288.44;5060764;28;20037;-78
2022/06/14 02:17:31;;;;;;;8.77;3.63;;;;;;;9.39;73.62;102288.44;5037395;28;20895;-77
2022/06/14 02:20:08;;;;;;;9.63;3.60;;;;;;;9.31;73.86;102298.97;5040977;28;20037;-78
2022/06/14 02:22:45;;;;;;;10.43;3.72;;;;;;;9.26;74.19;102289.38;5043453;28;20068;-80
2022/06/14 02:25:21;;;;;;;8.15;3.35;;;;;;;9.20;75.05;102277.09;5051178;28;20126;-80
2022/06/14 02:28:17;;;;;;;11.43;4.32;;;;;;;9.14;74.79;102287.63;5034731;28;20054;-80
2022/06/14 02:30:54;;;;;;;14.65;3.72;;;;;;;9.06;75.14;102276.22;5039098;28;20583;-79
2022/06/14 02:33:33;;;;;;;9.95;4.22;;;;;;;9.03;74.98;102282.38;5036341;28;20600;-78
2022/06/14 02:36:12;;;;;;;10.70;4.38;;;;;;;8.97;75.02;102285.88;5036118;28;20045;-78
2022/06/14 02:39:06;;;;;;;12.43;4.20;;;;;;;8.93;74.76;102286.75;5040688;28;20038;-75
2022/06/14 02:41:46;;;;;;;11.95;4.05;;;;;;;8.90;75.38;102272.72;5043689;28;20042;-77
2022/06/14 02:44:24;;;;;;;9.10;3.40;;;;;;;8.86;75.55;102274.50;5032880;28;20527;-78
2022/06/14 02:47:04;;;;;;;10.40;3.88;;;;;;;8.84;75.58;102274.50;5033076;28;20171;-77
2022/06/14 02:49:45;;;;;;;6.22;3.55;;;;;;;8.82;75.33;102272.72;5041681;28;20042;-77
2022/06/14 02:52:41;;;;;;;14.05;4.20;;;;;;;8.78;75.80;102271.00;5032089;28;20056;-78
2022/06/14 02:55:28;;;;;;;12.07;4.18;;;;;;;8.70;75.50;102271.84;5033458;28;20042;-77
2022/06/14 02:58:40;;;;;;;9.15;4.18;;;;;;;8.65;75.83;102268.34;5032106;28;20048;-77
2022/06/14 03:01:29;;;;;;;8.98;4.32;;;;;;;8.62;76.45;102265.72;5032365;28;20054;-78
2022/06/14 03:04:04;;;;;;;13.23;4.55;;;;;;;8.60;77.07;102264.81;5039877;28;20089;-77
2022/06/14 03:06:40;;;;;;;13.25;4.20;;;;;;;8.60;77.07;102263.97;5033541;28;20046;-77
2022/06/14 03:09:19;;;;;;;8.23;4.40;;;;;;;8.55;77.01;102259.56;5035781;28;20041;-77
2022/06/14 03:12:54;;;;;;;10.07;4.68;;;;;;;8.52;76.96;102253.44;5037228;28;20050;-78
2022/06/14 03:15:33;;;;;;;9.25;4.13;;;;;;;8.49;76.57;102261.34;5019302;28;20073;-77
2022/06/14 03:18:19;;;;;;;11.15;3.97;;;;;;;8.44;76.11;102257.78;5021483;28;20251;-76
2022/06/14 03:20:58;;;;;;;9.52;3.72;;;;;;;8.41;75.96;102258.66;5033069;28;20140;-77
2022/06/14 03:23:57;;;;;;;9.30;4.22;;;;;;;8.38;75.96;102261.28;5032638;28;20073;-77
2022/06/14 03:26:52;;;;;;;11.75;4.50;;;;;;;8.32;76.00;102270.03;5036909;28;20045;-77
2022/06/14 03:29:45;;;;;;;9.20;3.72;;;;;;;8.30;76.14;102263.88;5037695;28;20037;-76
2022/06/14 03:32:25;;;;;;;11.27;3.95;;;;;;;8.34;76.45;102270.91;5045554;28;20054;-77
2022/06/14 03:35:13;;;;;;;11.70;4.88;;;;;;;8.35;76.66;102272.66;5036146;28;20165;-76
2022/06/14 03:37:41;;;;;;;10.60;3.85;;;;;;;8.34;76.47;102278.78;5044455;28;20624;-79
2022/06/14 03:40:14;;;;;;;9.20;4.20;;;;;;;8.33;76.51;102273.53;5047340;28;20467;-77
2022/06/14 03:42:42;;;;;;;10.35;4.43;;;;;;;8.33;76.00;102278.78;5038156;28;20048;-76
2022/06/14 03:45:15;;;;;;;9.32;4.60;;;;;;;8.34;76.17;102281.41;5032328;28;20046;-77
2022/06/14 03:47:46;;;;;;;8.18;4.18;;;;;;;8.32;76.07;102275.28;5033107;28;20053;-79
2022/06/14 03:50:23;;;;;;;12.05;4.45;;;;;;;8.34;76.56;102277.94;5033847;28;20041;-76
2022/06/14 03:53:13;;;;;;;10.95;4.60;;;;;;;8.34;76.35;102276.16;5034329;28;20073;-75
2022/06/14 03:56:13;;;;;;;7.45;4.20;;;;;;;8.41;76.57;102274.44;5039648;28;20046;-76
2022/06/14 03:59:13;;;;;;;12.10;4.22;;;;;;;8.44;76.53;102270.91;5042357;28;20508;-77
2022/06/14 04:01:51;;;;;;;9.82;4.20;;;;;;;8.47;76.23;102276.19;5042770;28;20088;-76
2022/06/14 04:04:33;;;;;;;13.65;4.20;;;;;;;8.50;76.12;102270.94;5032643;28;20496;-75
2022/06/14 04:07:14;;;;;;;10.23;4.32;;;;;;;8.71;75.47;102264.84;5035899;28;20503;-76
2022/06/14 04:09:58;;;;;;;11.55;4.35;;;;;;;8.79;75.57;102270.13;5038022;28;20050;-76
2022/06/14 04:12:53;;;;;;;8.85;4.03;;;;;;;8.81;75.25;102263.97;5036472;28;20053;-76
2022/06/14 04:15:39;;;;;;;9.07;3.78;;;;;;;8.86;75.84;102266.59;5035826;28;20041;-77
2022/06/14 04:18:40;;;;;;;10.23;4.05;;;;;;;8.90;76.19;102264.84;5043074;28;20042;-79
2022/06/14 04:21:13;;;;;;;9.43;4.40;;;;;;;8.98;75.59;102269.22;5039712;28;20072;-79
2022/06/14 04:23:46;;;;;;;10.90;4.30;;;;;;;9.04;75.34;102267.47;5035502;28;20033;-78
2022/06/14 04:26:43;;;;;;;6.90;4.07;;;;;;;9.12;75.75;102268.31;5048192;28;20041;-77
2022/06/14 04:29:54;;;;;;;7.55;3.88;;;;;;;9.20;75.48;102276.22;5045895;28;20040;-79
2022/06/14 04:32:24;;;;;;;8.52;4.40;;;;;;;9.36;74.98;102277.06;5045071;28;20049;-75
2022/06/14 04:35:04;;;;;;;10.32;4.18;;;;;;;9.50;74.61;102270.00;5053374;28;20411;-73
2022/06/14 04:37:50;;;;;;;7.68;3.90;;;;;;;9.65;74.42;102266.44;5036969;28;20515;-76
2022/06/14 04:40:31;;;;;;;10.15;4.00;;;;;;;9.77;74.21;102276.91;5036928;28;20050;-75
2022/06/14 04:43:12;;;;;;;9.80;4.00;;;;;;;9.91;74.12;102283.91;5042929;28;20053;-77
2022/06/14 04:45:55;;;;;;;5.57;3.35;;;;;;;10.02;73.88;102271.56;5034668;28;20050;-77
2022/06/14 04:48:38;;;;;;;8.60;4.30;;;;;;;10.12;73.90;102282.94;5033936;28;20057;-79
2022/06/14 04:51:18;;;;;;;9.90;3.85;;;;;;;10.22;73.70;102282.00;5039911;28;20132;-76
2022/06/14 04:53:55;;;;;;;9.68;4.03;;;;;;;10.33;73.42;102288.94;5036757;28;20052;-76
2022/06/14 04:56:40;;;;;;;8.27;4.18;;;;;;;10.40;73.55;102291.56;5036383;28;20056;-76
2022/06/14 04:59:18;;;;;;;8.98;3.60;;;;;;;10.53;73.08;102289.72;5037907;28;20048;-77
2022/06/14 05:02:04;;;;;;;11.18;4.13;;;;;;;10.69;73.32;102285.19;5038074;28;20038;-76
2022/06/14 05:04:40;;;;;;;10.52;4.28;;;;;;;10.82;73.12;102283.38;5036507;28;20042;-76
2022/06/14 05:07:20;;;;;;;10.18;4.53;;;;;;;11.06;73.04;102293.72;5039837;28;20101;-77
2022/06/14 05:09:59;;;;;;;9.85;3.92;;;;;;;11.35;72.96;102288.13;5039183;28;20068;-77
2022/06/14 05:12:47;;;;;;;11.85;5.00;;;;;;;11.73;72.79;102286.84;5041599;28;20073;-76
2022/06/14 05:15:44;;;;;;;20.70;5.38;;;;;;;13.13;70.86;102287.44;5043949;28;20056;-77
2022/06/14 05:18:26;;;;;;;11.05;4.97;;;;;;;15.37;65.15;102286.88;5047444;28;20048;-77
2022/06/14 05:21:04;;;;;;;9.07;4.30;;;;;;;16.12;62.81;102283.88;5046894;28;20045;-78
2022/06/14 05:23:49;;;;;;;7.88;4.03;;;;;;;18.45;57.11;102278.34;5033414;28;20601;-76
2022/06/14 05:26:19;;;;;;;5.88;3.65;;;;;;;20.65;51.92;102271.13;5042769;28;20064;-75
2022/06/14 05:29:04;;;;;;;12.43;3.72;;;;;;;22.56;45.65;102274.34;5045672;28;20053;-76
2022/06/14 05:32:35;;;;;;;7.65;3.40;;;;;;;24.29;41.98;102274.44;5041165;28;20041;-76
2022/06/14 05:35:33;;;;;;;9.68;3.47;;;;;;;25.88;38.63;102277.97;5039033;28;20072;-76
2022/06/14 05:38:22;;;;;;;10.57;3.55;;;;;;;26.95;35.37;102278.97;5040292;28;20128;-77
2022/06/14 05:41:02;;;;;;;7.00;3.20;;;;;;;27.50;34.46;102288.28;5046288;28;20547;-76
2022/06/14 05:44:08;;;;;;;18.10;3.72;;;;;;;27.80;33.43;102286.78;5043006;28;20112;-76
2022/06/14 05:46:55;;;;;;;10.63;3.50;;;;;;;28.26;32.83;102285.75;5040189;28;20041;-75
2022/06/14 05:49:29;;;;;;;11.55;3.55;;;;;;;28.72;31.65;102277.44;5044206;28;20038;-76
2022/06/14 05:52:15;;;;;;;8.55;2.90;;;;;;;29.02;31.00;102273.94;5047396;28;20041;-76
2022/06/14 05:55:28;;;;;;;9.60;2.85;;;;;;;28.98;30.08;102270.63;5038290;28;20187;-77
2022/06/14 05:58:20;;;;;;;9.60;2.95;;;;;;;28.94;30.45;102265.63;5048440;28;20037;-78
2022/06/14 06:00:58;;;;;;;13.27;2.60;;;;;;;29.26;29.94;102272.75;5047926;28;20046;-76
2022/06/14 06:03:35;;;;;;;8.52;2.58;;;;;;;29.28;29.42;102271.66;5039516;28;20041;-76
2022/06/14 06:06:08;;;;;;;7.20;2.28;;;;;;;29.56;29.38;102276.50;5038094;28;20038;-77
2022/06/14 06:08:47;;;;;;;5.95;2.17;;;;;;;30.04;27.92;102278.53;5035027;28;20041;-77
2022/06/14 06:11:29;;;;;;;6.65;1.83;;;;;;;30.03;27.05;102274.09;5045994;28;20958;-77
2022/06/14 06:14:12;;;;;;;8.45;1.92;;;;;;;29.46;26.61;102271.03;5040055;28;20053;-77
2022/06/14 06:17:02;;;;;;;5.43;1.88;;;;;;;28.52;27.35;102270.00;5037315;28;20037;-77
2022/06/14 06:19:46;;;;;;;8.20;1.70;;;;;;;27.25;28.65;102277.53;5046027;28;20814;-78
2022/06/14 06:22:28;;;;;;;;;;;;;;;24.54;32.99;102282.72;5045051;28;20049;-76
2022/06/14 06:25:04;;;;;;;9.32;1.90;;;;;;;21.71;37.69;102280.88;5037274;28;19929;-75
2022/06/14 06:27:42;;;;;;;5.45;1.67;;;;;;;19.84;40.98;102291.03;5041204;28;20038;-77
2022/06/14 06:30:17;;;;;;;8.32;2.20;;;;;;;18.63;43.75;102290.94;5033976;28;20041;-77
2022/06/14 06:32:45;;;;;;;7.55;2.22;;;;;;;17.87;45.97;102289.50;5043993;28;20128;-76
2022/06/14 06:35:13;;;;;;;6.05;1.70;;;;;;;17.30;48.05;102292.44;5041162;28;20495;-77
2022/06/14 06:38:09;;;;;;;8.98;2.22;;;;;;;16.93;48.83;102297.25;5032779;28;20069;-77
2022/06/14 06:41:49;;;;;;;8.65;1.88;;;;;;;16.63;49.80;102308.00;5035788;28;20054;-76
2022/06/14 06:43:28;;;;;;;8.18;2.10;;;;;;;16.39;50.19;102312.28;5048209;28;20045;-77
2022/06/14 06:45:59;;;;;;;9.48;2.47;;;;;;;16.28;51.11;102305.50;5043441;28;20042;-78
2022/06/14 06:48:49;;;;;;;8.30;1.95;;;;;;;16.30;51.24;102314.31;5038783;28;20041;-78
2022/06/14 06:51:24;;;;;;;7.25;1.92;;;;;;;16.23;50.42;102309.22;5035423;28;20061;-77
2022/06/14 06:54:27;;;;;;;7.90;2.08;;;;;;;16.14;49.93;102310.41;5046135;28;20121;-76
2022/06/14 06:56:59;;;;;;;12.98;2.35;;;;;;;16.07;51.06;102299.09;5033218;28;20038;-78
2022/06/14 06:59:49;;;;;;;11.57;2.10;;;;;;;16.13;51.01;102309.53;5045136;28;20520;-76
2022/06/14 07:02:46;;;;;;;6.93;1.38;;;;;;;16.18;49.95;102321.81;5040014;28;20039;-78
2022/06/14 07:05:17;;;;;;;13.30;1.95;;;;;;;16.10;49.61;102314.06;5040846;28;20523;-77
2022/06/14 07:07:57;;;;;;;5.82;1.15;;;;;;;16.13;50.05;102324.63;5038801;28;20038;-76
2022/06/14 07:10:38;;;;;;;6.32;1.60;;;;;;;16.18;50.97;102320.03;5044473;28;20064;-77
2022/06/14 07:13:20;;;;;;;4.50;1.48;;;;;;;16.24;49.28;102316.31;5037170;28;20053;-76
2022/06/14 07:16:06;;;;;;;5.78;1.67;;;;;;;16.18;49.99;102312.03;5041043;28;20052;-76
2022/06/14 07:18:53;;;;;;;7.68;1.40;;;;;;;16.26;50.87;102309.16;5040204;28;20521;-75
2022/06/14 07:21:49;;;;;;;8.05;2.00;;;;;;;16.29;50.74;102309.91;5038495;28;20047;-76
2022/06/14 07:24:41;;;;;;;4.82;1.60;;;;;;;16.27;50.90;102311.78;5032277;28;20058;-77
2022/06/14 07:27:59;;;;;;;9.85;1.85;;;;;;;16.24;51.47;102309.22;5032254;28;20045;-76
2022/06/14 07:30:35;;;;;;;4.57;1.52;;;;;;;16.35;51.20;102308.84;5040062;28;20116;-77
2022/06/14 07:33:04;;;;;;;27.23;2.90;;;;;;;16.53;49.34;102309.22;5039866;28;20052;-76
2022/06/14 07:35:58;;;;;;;3.63;0.90;;;;;;;16.65;47.00;102308.81;5040718;28;20556;-77
2022/06/14 07:38:44;;;;;;;6.88;0.93;;;;;;;16.63;46.19;102296.47;5032083;28;20056;-76
2022/06/14 07:41:23;;;;;;;4.55;1.00;;;;;;;16.70;46.99;102305.97;5038089;28;20033;-76
2022/06/14 07:44:08;;;;;;;5.95;1.10;;;;;;;16.84;46.54;102295.75;5050890;28;20042;-77
2022/06/14 07:47:20;;;;;;;3.53;0.82;;;;;;;16.95;43.96;102294.56;5035211;28;20042;-77
2022/06/14 07:50:07;;;;;;;9.15;1.30;;;;;;;16.91;45.09;102296.44;5048960;28;20785;-77
2022/06/14 07:52:42;;;;;;;3.92;0.90;;;;;;;16.96;45.24;102290.97;5034879;28;20042;-77
2022/06/14 07:55:47;;;;;;;4.55;0.75;;;;;;;17.05;43.50;102288.84;5030268;28;20484;-78
2022/06/14 07:58:26;;;;;;;5.40;1.40;;;;;;;17.02;45.73;102286.31;5037530;28;20038;-77
2022/06/14 08:01:13;;;;;;;5.53;1.00;;;;;;;17.03;46.54;102289.81;5038652;28;20048;-77
2022/06/14 08:04:00;;;;;;;4.65;1.05;;;;;;;17.16;45.91;102288.50;5031576;28;20050;-77
2022/06/14 08:06:40;;;;;;;5.32;1.02;;;;;;;17.19;46.53;102293.72;5041681;28;20121;-78
2022/06/14 08:09:41;;;;;;;3.83;1.10;;;;;;;17.35;45.24;102304.69;5044385;28;20506;-78
2022/06/14 08:12:34;;;;;;;4.07;0.85;;;;;;;17.36;44.76;102301.09;5031724;28;20037;-79
2022/06/14 08:15:10;;;;;;;4.20;1.35;;;;;;;17.28;45.33;102288.97;5031040;28;20057;-77
2022/06/14 08:18:16;;;;;;;5.13;1.25;;;;;;;17.40;45.83;102288.50;5040984;28;20455;-76
2022/06/14 08:20:54;;;;;;;12.40;1.40;;;;;;;17.54;46.28;102283.56;5044650;28;20053;-77
2022/06/14 08:23:40;;;;;;;5.40;1.30;;;;;;;17.73;45.86;102282.00;5036470;28;20786;-77
2022/06/14 08:26:18;;;;;;;5.82;1.40;;;;;;;17.89;45.53;102283.16;5034516;28;20108;-78
2022/06/14 08:28:56;;;;;;;6.80;1.38;;;;;;;18.08;44.88;102282.47;5045848;28;20101;-77
2022/06/14 08:31:42;;;;;;;9.98;1.38;;;;;;;17.99;45.12;102268.56;5057048;28;20046;-79
2022/06/14 08:34:12;;;;;;;3.53;1.08;;;;;;;17.80;44.79;102276.41;5062877;28;20041;-78
2022/06/14 08:37:19;;;;;;;5.82;1.17;;;;;;;17.57;45.20;102274.56;5064742;28;20053;-78
2022/06/14 08:40:16;;;;;;;4.15;1.13;;;;;;;17.30;45.35;102276.44;5035278;28;20049;-80
2022/06/14 08:42:57;;;;;;;4.38;1.20;;;;;;;17.33;46.28;102281.69;5041125;28;20044;-79
2022/06/14 08:45:42;;;;;;;6.38;1.20;;;;;;;17.37;45.92;102280.66;5045657;28;20113;-78
2022/06/14 08:48:34;;;;;;;4.05;1.42;;;;;;;17.34;46.06;102278.97;5038406;28;20046;-78
2022/06/14 08:51:16;;;;;;;6.40;1.30;;;;;;;17.59;45.74;102277.22;5034725;28;20041;-77
2022/06/14 08:54:14;;;;;;;9.23;1.60;;;;;;;17.92;46.49;102268.81;5038369;28;20107;-76
2022/06/14 08:57:23;;;;;;;9.00;1.50;;;;;;;18.41;45.80;102271.38;5045622;28;20044;-77
2022/06/14 09:00:09;;;;;;;3.92;1.10;;;;;;;18.88;44.57;102270.34;5042619;28;20452;-77
2022/06/14 09:03:05;;;;;;;8.63;1.60;;;;;;;19.27;44.64;102269.56;5034507;28;20037;-77
2022/06/14 09:05:47;;;;;;;17.98;2.20;;;;;;;19.63;43.38;102268.84;5037189;28;20065;-77
2022/06/14 09:08:32;;;;;;;13.35;1.80;;;;;;;19.70;42.81;102269.41;5034815;28;20140;-77
2022/06/14 09:11:18;;;;;;;;;;;;;;;19.52;42.86;102273.81;5041398;28;20544;-77
2022/06/14 09:14:19;;;;;;;8.18;1.48;;;;;;;19.09;43.29;102276.56;5040578;28;19925;-77
2022/06/14 09:17:04;;;;;;;6.10;1.10;;;;;;;18.81;44.45;102275.06;5035597;28;20571;-75
2022/06/14 09:20:54;;;;;;;7.07;1.40;;;;;;;18.59;44.23;102267.09;5046447;28;20046;-75
2022/06/14 09:23:51;;;;;;;4.97;1.30;;;;;;;18.66;43.21;102271.25;5041987;28;20073;-74
2022/06/14 09:27:39;;;;;;;5.43;1.20;;;;;;;18.71;43.72;102271.94;5035478;28;20050;-76
2022/06/14 09:30:48;;;;;;;4.22;1.20;;;;;;;18.80;43.37;102261.78;5041016;28;20546;-76
2022/06/14 09:34:05;;;;;;;7.93;1.35;;;;;;;18.87;43.68;102266.78;5034737;28;20054;-75
2022/06/14 09:37:02;;;;;;;6.82;1.50;;;;;;;19.26;44.51;102269.63;5034796;28;20046;-75
2022/06/14 09:40:07;;;;;;;7.47;1.23;;;;;;;19.48;42.85;102267.75;5049152;28;20107;-76
2022/06/14 09:43:32;;;;;;;104.72;12.05;;;;;;;19.50;42.05;102265.84;5040467;28;20046;-75
2022/06/14 09:46:03;;;;;;;9.57;1.60;;;;;;;19.49;42.06;102263.25;5041642;28;20072;-76
2022/06/14 09:48:58;;;;;;;18.85;2.03;;;;;;;19.58;42.02;102259.28;5036032;28;20046;-76
2022/06/14 09:51:57;;;;;;;6.78;1.65;;;;;;;19.20;42.71;102255.59;5045134;28;20069;-76
2022/06/14 09:55:02;;;;;;;8.60;1.70;;;;;;;19.36;42.43;102252.25;5044989;28;20504;-77
2022/06/14 09:57:57;;;;;;;6.03;1.20;;;;;;;19.50;41.77;102248.94;5037894;28;20046;-77
2022/06/14 10:00:56;;;;;;;4.70;1.35;;;;;;;19.62;42.12;102243.03;5040990;28;20584;-77
2022/06/14 10:03:51;;;;;;;4.40;1.30;;;;;;;19.73;41.74;102245.19;5042968;28;20042;-77
2022/06/14 10:06:44;;;;;;;5.57;1.30;;;;;;;19.55;42.26;102242.44;5037779;28;20121;-78
2022/06/14 10:09:52;;;;;;;6.90;1.23;;;;;;;19.57;41.80;102241.50;5033374;28;20068;-78
2022/06/14 10:12:32;;;;;;;5.53;1.17;;;;;;;19.85;42.69;102238.38;5040233;28;20041;-78
2022/06/14 10:15:30;;;;;;;8.75;1.27;;;;;;;20.25;41.98;102238.31;5040281;28;20162;-78
2022/06/14 10:18:43;;;;;;;5.53;1.67;;;;;;;20.46;39.31;102229.22;5031568;28;20060;-75
2022/06/14 10:21:19;;;;;;;6.68;1.33;;;;;;;20.27;39.10;102228.41;5029538;28;20054;-75
2022/06/14 10:24:13;;;;;;;8.27;1.75;;;;;;;20.02;39.63;102230.47;5038899;28;20670;-77
2022/06/14 10:30:02;;;;;;;10.35;1.60;;;;;;;20.07;40.50;102218.66;5040300;28;20116;-77
2022/06/14 10:33:02;;;;;;;12.55;2.00;;;;;;;20.20;40.46;102211.75;5040027;28;20109;-78
2022/06/14 10:35:41;;;;;;;3.22;1.10;;;;;;;20.11;40.43;102213.06;5041864;28;20076;-78
2022/06/14 10:38:36;;;;;;;2.72;0.93;;;;;;;20.17;40.11;102204.75;5052723;28;20045;-78
2022/06/14 10:41:52;;;;;;;4.93;1.17;;;;;;;20.02;39.22;102213.53;5032533;28;20081;-78
2022/06/14 10:44:38;;;;;;;3.67;1.10;;;;;;;19.95;39.80;102206.75;5039868;28;20120;-78
2022/06/14 10:47:30;;;;;;;9.55;1.50;;;;;;;20.08;39.82;102196.31;5042982;28;20120;-77
2022/06/14 10:50:17;;;;;;;6.47;1.10;;;;;;;20.27;40.45;102198.94;5059780;28;20128;-79
2022/06/14 10:53:26;;;;;;;6.05;1.40;;;;;;;20.51;40.06;102194.16;5035033;28;20143;-78
2022/06/14 10:56:18;;;;;;;6.22;1.45;;;;;;;20.76;40.40;102187.53;5034913;28;20054;-78
2022/06/14 10:59:26;;;;;;;5.53;1.27;;;;;;;20.94;40.07;102177.69;5049708;28;20084;-78
2022/06/14 11:02:08;;;;;;;4.75;1.15;;;;;;;21.08;38.34;102179.63;5032923;28;20514;-79
2022/06/14 11:05:05;;;;;;;5.43;1.20;;;;;;;20.76;39.65;102182.19;5032958;28;20644;-78
2022/06/14 11:08:07;;;;;;;4.78;1.17;;;;;;;20.96;40.26;102180.28;5034064;28;20030;-78
2022/06/14 11:10:50;;;;;;;6.07;1.10;;;;;;;21.20;38.39;102183.47;5043849;28;20042;-79
2022/06/14 11:13:58;;;;;;;4.78;1.25;;;;;;;21.21;38.79;102169.97;5041684;28;20109;-78
2022/06/14 11:16:44;;;;;;;4.40;1.15;;;;;;;21.26;37.45;102172.41;5035716;28;20848;-78
2022/06/14 11:19:52;;;;;;;4.38;1.27;;;;;;;21.21;38.21;102175.34;5036199;28;20108;-78
2022/06/14 11:22:45;;;;;;;4.78;1.10;;;;;;;21.01;37.95;102160.31;5044651;28;20043;-77
2022/06/14 11:25:52;;;;;;;4.40;1.30;;;;;;;21.13;38.59;102164.16;5031944;28;20472;-78
2022/06/14 11:28:53;;;;;;;4.10;1.15;;;;;;;21.40;37.17;102153.75;5039989;28;20060;-78
2022/06/14 11:31:32;;;;;;;5.57;1.45;;;;;;;21.09;38.85;102147.38;5037079;28;20068;-79
2022/06/14 11:34:07;;;;;;;5.13;1.67;;;;;;;21.03;38.19;102149.53;5049376;28;20052;-78
2022/06/14 11:36:53;;;;;;;5.10;1.20;;;;;;;21.22;39.04;102146.69;5039467;28;20045;-79
2022/06/14 11:39:41;;;;;;;3.75;1.25;;;;;;;20.98;39.77;102146.22;5038310;28;20504;-78
2022/06/14 11:42:38;;;;;;;4.50;1.10;;;;;;;20.88;39.08;102137.81;5035208;28;20066;-77
2022/06/14 11:45:26;;;;;;;4.90;1.02;;;;;;;21.24;38.51;102128.72;5039236;28;20683;-78
2022/06/14 11:48:17;;;;;;;4.30;1.20;;;;;;;21.44;39.07;102129.41;5042070;28;20042;-76
2022/06/14 11:50:55;;;;;;;5.30;1.02;;;;;;;21.54;38.11;102122.56;5034780;28;20046;-78
2022/06/14 11:54:05;;;;;;;5.95;1.13;;;;;;;21.07;38.86;102137.66;5043051;28;20044;-77
2022/06/14 11:57:08;;;;;;;5.20;1.17;;;;;;;20.86;39.79;102129.00;5047133;28;20452;-78
2022/06/14 12:00:24;;;;;;;5.35;1.42;;;;;;;21.00;40.89;102130.91;5051147;28;20112;-78
2022/06/14 12:04:05;;;;;;;5.40;1.20;;;;;;;21.14;39.25;102114.97;5030942;28;20038;-75
2022/06/14 12:06:55;;;;;;;7.55;1.45;;;;;;;21.54;40.16;102115.41;5035975;28;20056;-76
2022/06/14 12:10:01;;;;;;;6.35;1.42;;;;;;;21.92;39.43;102124.03;5043061;28;20045;-76
2022/06/14 12:13:14;;;;;;;4.38;1.20;;;;;;;22.37;38.88;102114.22;5039712;28;20061;-78
2022/06/14 12:16:03;;;;;;;5.72;1.33;;;;;;;22.61;37.40;102124.44;5041808;28;20812;-77
2022/06/14 12:18:37;;;;;;;8.23;1.60;;;;;;;22.70;37.58;102120.34;5031844;28;20038;-78
2022/06/14 12:21:44;;;;;;;9.68;1.77;;;;;;;22.76;37.49;102112.78;5050098;28;20037;-79
2022/06/14 12:24:21;;;;;;;13.02;1.65;;;;;;;22.92;36.96;102122.56;5040662;28;20050;-77
2022/06/14 12:27:03;;;;;;;4.80;1.08;;;;;;;23.15;35.92;102117.56;5038986;28;20041;-77
2022/06/14 12:29:40;;;;;;;6.18;1.38;;;;;;;23.17;37.04;102113.78;5036366;28;20153;-77
2022/06/14 12:32:21;;;;;;;17.23;1.80;;;;;;;23.23;36.62;102109.88;5050138;28;20042;-78
2022/06/14 12:34:53;;;;;;;7.53;1.75;;;;;;;23.28;36.88;102094.31;5040953;28;20042;-73
2022/06/14 12:37:50;;;;;;;8.60;1.48;;;;;;;23.22;36.13;102100.09;5047952;28;20575;-77
2022/06/14 12:40:29;;;;;;;11.52;1.58;;;;;;;23.02;36.37;102091.44;5042640;28;20092;-78
2022/06/14 12:43:24;;;;;;;6.20;1.17;;;;;;;22.97;35.79;102085.50;5048114;28;20041;-77
2022/06/14 12:46:04;;;;;;;5.47;1.38;;;;;;;22.93;35.77;102083.97;5037581;28;20042;-77
2022/06/14 12:48:57;;;;;;;8.45;1.42;;;;;;;23.00;36.24;102074.53;5043265;28;20532;-77
2022/06/14 12:51:35;;;;;;;5.60;1.27;;;;;;;23.07;35.32;102085.75;5036503;28;20107;-78
2022/06/14 12:54:21;;;;;;;5.22;1.35;;;;;;;22.64;36.30;102079.44;5034727;28;20046;-78
2022/06/14 12:57:12;;;;;;;3.30;1.30;;;;;;;22.50;35.93;102079.44;5046616;28;20068;-77
2022/06/14 13:00:30;;;;;;;6.28;1.42;;;;;;;22.62;36.07;102077.81;5047395;28;20538;-77
2022/06/14 13:03:18;;;;;;;11.63;1.92;;;;;;;22.71;37.17;102076.38;5038978;28;20574;-77
2022/06/14 13:06:08;;;;;;;8.65;1.65;;;;;;;23.10;35.80;102070.28;5039257;28;20149;-76
2022/06/14 13:08:56;;;;;;;4.57;1.20;;;;;;;23.31;34.97;102067.22;5043756;28;20045;-77